KQBF

Ouagadougou

Ouagadougou, Burkina Faso
METAR KQBF 191357Z AUTO 00000KT 9000 HZ CLR 32/M13 A2988 RMK AO2 SLPNO WND DATA ESTMD T03221132
Observed Flight Rules
Jan-19 @ 13:57 UTC (11 hours ago) Visual Flight Rules
Wind Visibility Clouds Conditions
Calm 8,996 meters
  • Clear skies
  • Haze
Temperatures Readings
Current 32°C / 90°F
Dewpoint -13°C / 9°F
Humidity 5%
Altimeter 29.88" Hg
Pressure 1012 hPa
METAR KQBF 191357Z AUTO 00000KT 9000 HZ CLR 32/M13 A2988 RMK AO2 SLPNO WND DATA ESTMD T03221132
Observed Flight Rules
Jan-19 @ 13:57 UTC
(11 hours ago)
VFR
Wind Visibility
Calm 8,996 meters
Clouds
  • Clear skies
Conditions
  • Haze
Temperature Dewpoint
32°C / 90°F -13°C / 9°F
Humidity Altimeter Pressure
5% 29.88" Hg 1012 hPa